Comandante Giribone, Argentina
Current Conditions -  °F | °C
As of 9:00 AM on Sunday 21 Dec 2014 (Local Time) from SAEZ Reporting Station
Broken Clouds Broken Clouds  
Wind Chill: 14°   Ceiling: 3300
Heat Index: 14°   Visibility: 6mi
Dew Point: 12°   Wind: 5mph
Humidity: 88%   Direction: 250°WSW
Pressure: 29.8"   Gusts: NA
Location:  35.62°S, 57.73°W
Report Text: SAEZ 211200Z 25004KT 200V270 9999 BKN033 14/12 Q1009
Loading
Personal Weather Stations






























Interactive Weather Map New forecast layout! Learn more

10-Day Weather Forecast

Advertisements
Track Severe Weather on mobile